createdAt,value
2023-04-19T00:00:33.164Z,7.15
2023-04-19T00:03:03.596Z,8.70
2023-04-19T00:10:50.131Z,8.20
2023-04-19T00:13:17.128Z,8.57
2023-04-19T00:15:45.296Z,9.27
2023-04-19T00:18:15.033Z,7.55
2023-04-19T00:20:49.916Z,9.67
2023-04-19T00:23:25.051Z,9.15
2023-04-19T00:26:06.051Z,7.40
2023-04-19T00:28:35.364Z,8.30
2023-04-19T00:31:04.393Z,8.70
2023-04-19T00:33:34.900Z,8.48
2023-04-19T00:36:05.885Z,9.93
2023-04-19T00:38:34.202Z,9.15
2023-04-19T00:41:06.767Z,10.68
2023-04-19T00:43:35.500Z,9.63
2023-04-19T00:46:04.462Z,10.70
2023-04-19T00:51:20.321Z,11.35
2023-04-19T00:54:01.985Z,9.95
2023-04-19T00:56:35.363Z,11.00
2023-04-19T00:59:05.401Z,11.50
2023-04-19T01:01:45.331Z,11.50
2023-04-19T01:04:13.081Z,11.07
2023-04-19T01:06:59.612Z,13.15
2023-04-19T01:12:23.351Z,13.95
2023-04-19T01:18:09.529Z,14.52
2023-04-19T01:20:42.661Z,13.88
2023-04-19T01:23:37.224Z,14.38
2023-04-19T01:28:52.368Z,13.93
2023-04-19T01:31:28.707Z,13.65
2023-04-19T01:34:11.113Z,13.43
2023-04-19T01:36:43.082Z,14.02
2023-04-19T01:39:22.107Z,15.00
2023-04-19T01:41:49.011Z,16.05
2023-04-19T01:44:18.308Z,14.05
2023-04-19T01:46:46.063Z,15.70
2023-04-19T01:49:27.308Z,14.20
2023-04-19T01:54:45.512Z,14.18
2023-04-19T01:57:14.001Z,16.60
2023-04-19T02:00:32.513Z,17.38
2023-04-19T02:02:59.821Z,16.50
2023-04-19T02:05:31.193Z,19.35
2023-04-19T02:08:00.602Z,19.25
2023-04-19T02:13:48.204Z,16.75
2023-04-19T02:16:16.314Z,17.33
2023-04-19T02:18:43.609Z,15.65
2023-04-19T02:21:11.519Z,17.13
2023-04-19T02:23:38.677Z,18.02
2023-04-19T02:26:11.275Z,16.63
2023-04-19T02:28:46.709Z,18.42
2023-04-19T02:31:21.925Z,17.75
2023-04-19T02:33:50.270Z,15.48
2023-04-19T02:36:20.770Z,16.48
2023-04-19T02:41:37.291Z,17.48
2023-04-19T02:44:07.508Z,16.15
2023-04-19T02:46:38.906Z,19.50
2023-04-19T02:49:10.431Z,17.63
2023-04-19T02:57:03.923Z,19.13
2023-04-19T02:59:41.684Z,18.67
2023-04-19T03:02:12.573Z,20.83
2023-04-19T03:04:41.989Z,18.55
2023-04-19T03:07:10.000Z,16.97
2023-04-19T03:09:49.326Z,17.63
2023-04-19T03:12:38.336Z,18.92
2023-04-19T03:15:14.994Z,20.15
2023-04-19T03:17:43.648Z,22.70
2023-04-19T03:20:12.337Z,19.50
2023-04-19T03:22:41.656Z,20.42
2023-04-19T03:25:16.466Z,19.10
2023-04-19T03:27:55.266Z,20.52
2023-04-19T03:33:10.662Z,20.42
2023-04-19T03:41:08.888Z,19.40
2023-04-19T03:43:39.208Z,19.45
2023-04-19T03:46:10.801Z,22.88
2023-04-19T03:48:45.959Z,20.25
2023-04-19T03:51:16.671Z,19.25
2023-04-19T03:53:57.114Z,20.23
2023-04-19T03:56:28.357Z,18.10
2023-04-19T03:59:09.182Z,17.20
2023-04-19T04:01:44.082Z,20.40
2023-04-19T04:04:24.669Z,21.45
2023-04-19T04:06:59.195Z,19.90
2023-04-19T04:09:29.430Z,21.48
2023-04-19T04:11:56.295Z,22.25
2023-04-19T04:14:37.830Z,22.02
2023-04-19T04:17:14.642Z,18.52
2023-04-19T04:22:31.473Z,20.70
2023-04-19T04:25:03.094Z,19.33
2023-04-19T04:27:31.001Z,21.45
2023-04-19T04:30:05.186Z,21.88
2023-04-19T04:35:23.352Z,21.48
2023-04-19T04:37:54.415Z,21.73
2023-04-19T04:40:24.803Z,19.48
2023-04-19T04:43:13.004Z,18.70
2023-04-19T04:45:53.342Z,20.13
2023-04-19T04:48:38.227Z,21.45
2023-04-19T04:51:08.273Z,20.58
2023-04-19T04:56:27.140Z,20.65
2023-04-19T04:58:56.512Z,19.38
2023-04-19T05:01:30.670Z,21.98
2023-04-19T05:04:01.012Z,21.98
2023-04-19T05:06:29.819Z,20.50
2023-04-19T05:09:04.287Z,21.60
2023-04-19T05:12:04.229Z,20.55
2023-04-19T05:14:53.479Z,19.23
2023-04-19T05:17:32.253Z,19.92
2023-04-19T05:19:59.387Z,19.27
2023-04-19T05:22:28.354Z,21.08
2023-04-19T05:25:03.800Z,23.90
2023-04-19T05:31:08.797Z,20.23
2023-04-19T05:39:31.665Z,21.52
2023-04-19T05:41:59.070Z,19.05
2023-04-19T05:44:29.696Z,19.10
2023-04-19T05:49:41.396Z,16.98
2023-04-19T05:52:18.911Z,19.33
2023-04-19T06:09:00.572Z,17.23
2023-04-19T06:11:38.443Z,16.05
2023-04-19T06:14:15.916Z,13.68
2023-04-19T06:19:28.098Z,15.40
2023-04-19T06:22:03.809Z,15.77
2023-04-19T06:24:35.239Z,17.85
2023-04-19T06:27:03.513Z,15.95
2023-04-19T06:32:34.093Z,15.82
2023-04-19T06:35:10.106Z,13.57
2023-04-19T06:37:46.947Z,13.73
2023-04-19T06:42:57.285Z,14.13
2023-04-19T06:45:31.917Z,18.48
2023-04-19T06:48:24.422Z,13.85
2023-04-19T06:50:58.680Z,12.57
2023-04-19T06:53:55.051Z,12.98
2023-04-19T06:59:56.995Z,9.63
2023-04-19T07:02:26.346Z,10.95
2023-04-19T07:04:54.416Z,11.13
2023-04-19T07:07:34.107Z,9.25
2023-04-19T07:10:06.753Z,9.85
2023-04-19T07:12:52.567Z,9.18
2023-04-19T07:15:20.304Z,8.30
2023-04-19T07:20:37.771Z,8.82
2023-04-19T07:23:10.395Z,7.50
2023-04-19T07:25:44.219Z,7.60
2023-04-19T07:28:26.661Z,7.53
2023-04-19T07:30:59.517Z,8.73
2023-04-19T07:33:36.796Z,8.32
2023-04-19T07:49:42.505Z,6.18
2023-04-19T07:52:12.702Z,6.35
2023-04-19T07:54:47.556Z,6.88
2023-04-19T07:57:19.697Z,8.95
2023-04-19T08:07:56.996Z,6.07
2023-04-19T08:10:44.835Z,6.10
2023-04-19T08:13:21.452Z,5.35
2023-04-19T08:16:24.406Z,7.00
2023-04-19T08:21:41.954Z,6.10
2023-04-19T08:24:22.664Z,5.35
2023-04-19T08:27:15.898Z,6.22
2023-04-19T08:32:34.750Z,7.70
2023-04-19T08:40:58.470Z,5.28
2023-04-19T08:43:30.673Z,5.75
2023-04-19T08:46:09.079Z,7.57
2023-04-19T08:48:43.326Z,5.80
2023-04-19T08:51:14.876Z,5.88
2023-04-19T08:53:47.921Z,5.82
2023-04-19T08:59:18.838Z,6.00
2023-04-19T09:07:46.374Z,6.07
2023-04-19T09:10:20.723Z,7.22
2023-04-19T09:13:07.069Z,9.80
2023-04-19T09:15:46.431Z,5.78
2023-04-19T09:18:33.116Z,6.45
2023-04-19T09:26:37.198Z,7.43
2023-04-19T09:29:13.780Z,7.68
2023-04-19T09:32:03.132Z,7.35
2023-04-19T09:34:31.982Z,7.35
2023-04-19T09:37:39.042Z,7.03
2023-04-19T09:40:28.246Z,9.25
2023-04-19T09:43:36.473Z,9.05
2023-04-19T09:46:00.751Z,6.97
2023-04-19T09:48:27.279Z,8.98
2023-04-19T09:51:07.442Z,5.90
2023-04-19T09:53:43.568Z,7.15
2023-04-19T09:56:16.202Z,5.40
2023-04-19T09:58:56.516Z,5.57
2023-04-19T10:01:40.130Z,5.03
2023-04-19T10:04:20.206Z,6.78
2023-04-19T10:07:19.500Z,6.32
2023-04-19T10:12:52.228Z,7.03
2023-04-19T10:15:42.863Z,7.57
2023-04-19T10:18:18.983Z,5.18
2023-04-19T10:21:07.094Z,5.65
2023-04-19T10:23:39.047Z,7.72
2023-04-19T10:26:08.042Z,7.38
2023-04-19T10:28:42.280Z,6.45
2023-04-19T10:31:13.745Z,8.52
2023-04-19T10:33:43.761Z,6.03
2023-04-19T10:36:24.790Z,6.78
2023-04-19T10:38:56.075Z,6.88
2023-04-19T10:41:29.356Z,7.18
2023-04-19T10:44:01.109Z,7.82
2023-04-19T10:46:34.372Z,6.70
2023-04-19T10:49:14.438Z,7.97
2023-04-19T10:51:58.452Z,6.28
2023-04-19T10:54:40.300Z,6.03
2023-04-19T11:03:52.750Z,5.05
2023-04-19T11:09:27.913Z,8.05
2023-04-19T11:12:04.134Z,6.47
2023-04-19T11:17:39.886Z,3.70
2023-04-19T11:20:11.865Z,6.55
2023-04-19T11:23:01.653Z,8.05
2023-04-19T11:25:35.834Z,5.18
2023-04-19T11:28:05.249Z,3.95
2023-04-19T11:30:37.026Z,4.10
2023-04-19T11:33:09.462Z,4.40
2023-04-19T11:35:42.301Z,4.65
2023-04-19T11:43:58.115Z,4.60
2023-04-19T11:46:29.197Z,3.25
2023-04-19T11:48:56.939Z,2.80
2023-04-19T11:51:27.974Z,4.53
2023-04-19T11:53:59.577Z,4.75
2023-04-19T11:56:32.240Z,4.45
2023-04-19T11:59:07.272Z,3.10
2023-04-19T12:01:41.163Z,4.43
2023-04-19T12:04:11.960Z,3.15
2023-04-19T12:12:36.869Z,3.22
2023-04-19T12:15:24.838Z,3.00
2023-04-19T12:18:00.746Z,2.72
2023-04-19T12:20:38.999Z,3.63
2023-04-19T12:23:21.305Z,5.05
2023-04-19T12:25:54.572Z,2.83
2023-04-19T12:28:25.129Z,2.53
2023-04-19T12:33:33.458Z,2.65
2023-04-19T12:36:13.979Z,2.28
2023-04-19T12:38:44.602Z,3.40
2023-04-19T12:41:11.219Z,2.60
2023-04-19T12:43:43.098Z,2.45
2023-04-19T12:46:16.286Z,2.15
2023-04-19T12:48:46.894Z,1.50
2023-04-19T12:53:55.377Z,2.05
2023-04-19T12:56:25.162Z,2.25
2023-04-19T12:58:58.619Z,2.35
2023-04-19T13:01:49.068Z,1.45
2023-04-19T13:04:17.120Z,2.03
2023-04-19T13:06:48.152Z,2.28
2023-04-19T13:09:17.819Z,2.47
2023-04-19T13:11:53.954Z,1.40
2023-04-19T13:14:27.917Z,1.40
2023-04-19T13:16:57.361Z,2.13
2023-04-19T13:19:25.708Z,1.92
2023-04-19T13:24:36.181Z,1.67
2023-04-19T13:27:08.720Z,3.28
2023-04-19T13:32:31.950Z,1.67
2023-04-19T13:37:48.671Z,2.53
2023-04-19T13:40:22.282Z,1.27
2023-04-19T13:42:52.216Z,1.15
2023-04-19T13:45:28.276Z,1.23
2023-04-19T13:47:57.608Z,3.70
2023-04-19T13:50:37.700Z,3.42
2023-04-19T13:53:06.482Z,1.30
2023-04-19T13:55:37.492Z,1.65
2023-04-19T13:58:10.012Z,1.15
2023-04-19T14:00:38.913Z,2.60
2023-04-19T14:03:35.766Z,3.97
2023-04-19T14:08:52.487Z,2.65
2023-04-19T14:11:23.928Z,1.73
2023-04-19T14:13:57.092Z,2.38
2023-04-19T14:16:30.407Z,3.47
2023-04-19T14:18:57.925Z,1.73
2023-04-19T14:21:33.524Z,2.67
2023-04-19T14:24:00.718Z,4.15
2023-04-19T14:26:29.342Z,3.05
2023-04-19T14:29:02.432Z,3.40
2023-04-19T14:31:30.737Z,1.95
2023-04-19T14:33:59.581Z,1.77
2023-04-19T14:39:12.512Z,3.92
2023-04-19T14:41:45.108Z,2.53
2023-04-19T14:44:20.982Z,4.25
2023-04-19T14:46:48.408Z,2.92
2023-04-19T14:49:15.861Z,3.58
2023-04-19T14:51:46.086Z,3.15
2023-04-19T14:54:14.785Z,4.10
2023-04-19T14:59:27.584Z,2.88
2023-04-19T15:04:31.640Z,4.07
2023-04-19T15:07:05.297Z,1.85
2023-04-19T15:09:33.818Z,3.45
2023-04-19T15:12:04.957Z,2.60
2023-04-19T15:14:41.096Z,3.47
2023-04-19T15:17:07.887Z,2.88
2023-04-19T15:19:37.645Z,4.53
2023-04-19T15:22:15.277Z,3.30
2023-04-19T15:24:45.428Z,3.20
2023-04-19T15:27:27.710Z,2.75
2023-04-19T15:29:58.879Z,3.25
2023-04-19T15:32:39.755Z,2.40
2023-04-19T15:35:12.397Z,4.78
2023-04-19T15:37:49.369Z,2.78
2023-04-19T15:40:18.302Z,5.43
2023-04-19T15:45:40.005Z,2.50
2023-04-19T15:48:14.623Z,3.03
2023-04-19T15:50:44.932Z,2.85
2023-04-19T15:56:44.827Z,4.32
2023-04-19T15:59:11.715Z,4.57
2023-04-19T16:01:43.806Z,3.72
2023-04-19T16:04:12.038Z,3.25
2023-04-19T16:06:43.201Z,4.30
2023-04-19T16:09:17.771Z,3.00
2023-04-19T16:11:53.136Z,2.35
2023-04-19T16:17:12.743Z,6.20
2023-04-19T16:19:47.741Z,4.28
2023-04-19T16:22:18.144Z,2.70
2023-04-19T16:27:51.788Z,2.25
2023-04-19T16:33:07.699Z,3.75
2023-04-19T16:35:39.993Z,3.38
2023-04-19T16:38:22.259Z,3.47
2023-04-19T16:40:51.881Z,4.13
2023-04-19T16:43:23.350Z,3.28
2023-04-19T16:45:57.193Z,2.72
2023-04-19T16:48:45.310Z,2.80
2023-04-19T16:54:29.715Z,5.78
2023-04-19T16:57:04.132Z,4.35
2023-04-19T16:59:34.857Z,4.30
2023-04-19T17:02:09.009Z,3.95
2023-04-19T17:04:42.985Z,4.50
2023-04-19T17:10:19.047Z,3.05
2023-04-19T17:12:52.362Z,5.22
2023-04-19T17:15:24.431Z,3.88
2023-04-19T17:17:57.657Z,6.00
2023-04-19T17:23:26.941Z,3.17
2023-04-19T17:32:20.134Z,5.05
2023-04-19T17:34:48.551Z,4.20
2023-04-19T17:37:21.784Z,5.28
2023-04-19T17:39:52.313Z,3.42
2023-04-19T17:42:20.989Z,5.07
2023-04-19T17:45:22.313Z,3.92
2023-04-19T17:48:01.982Z,2.97
2023-04-19T17:50:57.281Z,3.83
2023-04-19T17:53:40.715Z,4.55
2023-04-19T17:56:07.933Z,3.53
2023-04-19T17:58:39.411Z,3.65
2023-04-19T18:01:16.151Z,3.75
2023-04-19T18:07:12.854Z,3.08
2023-04-19T18:09:58.823Z,5.38
2023-04-19T18:12:31.029Z,4.50
2023-04-19T18:15:01.776Z,4.43
2023-04-19T18:17:38.029Z,2.60
2023-04-19T18:20:34.964Z,5.13
2023-04-19T18:23:06.400Z,3.40
2023-04-19T18:25:40.706Z,3.42
2023-04-19T18:28:12.031Z,5.47
2023-04-19T18:33:30.954Z,3.25
2023-04-19T18:35:59.312Z,3.92
2023-04-19T18:38:30.494Z,3.22
2023-04-19T18:46:24.714Z,3.85
2023-04-19T18:48:57.217Z,2.60
2023-04-19T18:51:27.012Z,3.83
2023-04-19T18:53:59.810Z,4.95
2023-04-19T18:59:15.851Z,4.72
2023-04-19T19:01:52.454Z,2.30
2023-04-19T19:07:11.034Z,4.18
2023-04-19T19:12:30.161Z,2.78
2023-04-19T19:15:07.622Z,4.05
2023-04-19T19:17:34.975Z,3.88
2023-04-19T19:20:18.132Z,3.28
2023-04-19T19:25:38.672Z,3.67
2023-04-19T19:30:56.717Z,5.85
2023-04-19T19:33:24.379Z,4.30
2023-04-19T19:36:02.569Z,3.70
2023-04-19T19:38:30.903Z,3.90
2023-04-19T19:43:36.955Z,4.00
2023-04-19T19:46:11.495Z,5.10
2023-04-19T19:48:53.484Z,5.57
2023-04-19T20:02:22.338Z,4.75
2023-04-19T20:05:16.476Z,2.75
2023-04-19T20:10:45.189Z,4.55
2023-04-19T20:13:19.007Z,4.32
2023-04-19T20:16:04.193Z,5.50
2023-04-19T20:18:32.979Z,5.60
2023-04-19T20:23:47.691Z,3.72
2023-04-19T20:26:19.227Z,4.63
2023-04-19T20:28:49.054Z,4.25
2023-04-19T20:31:23.766Z,6.53
2023-04-19T20:33:59.624Z,5.05
2023-04-19T20:39:14.011Z,6.65
2023-04-19T20:41:51.749Z,4.68
2023-04-19T20:44:25.309Z,4.75
2023-04-19T20:47:03.626Z,5.90
2023-04-19T20:57:49.768Z,5.35
2023-04-19T21:00:20.712Z,5.32
2023-04-19T21:03:04.466Z,5.07
2023-04-19T21:05:40.667Z,6.72
2023-04-19T21:16:14.095Z,3.90
2023-04-19T21:18:41.472Z,4.55
2023-04-19T21:21:11.158Z,7.30
2023-04-19T21:23:41.459Z,4.43
2023-04-19T21:26:13.327Z,6.32
2023-04-19T21:28:43.642Z,6.30
2023-04-19T21:34:28.217Z,4.50
2023-04-19T21:36:55.408Z,5.32
2023-04-19T21:39:23.729Z,4.25
2023-04-19T21:41:55.145Z,4.55
2023-04-19T21:44:32.189Z,4.30
2023-04-19T21:47:11.552Z,5.40
2023-04-19T21:49:47.513Z,6.82
2023-04-19T21:52:14.540Z,5.78
2023-04-19T21:54:41.837Z,5.57
2023-04-19T21:57:16.882Z,7.88
2023-04-19T21:59:44.741Z,5.20
2023-04-19T22:02:13.121Z,4.32
2023-04-19T22:04:46.714Z,7.15
2023-04-19T22:07:13.631Z,4.13
2023-04-19T22:09:43.737Z,10.45
2023-04-19T22:12:13.943Z,5.77
2023-04-19T22:14:41.823Z,5.88
2023-04-19T22:17:13.489Z,6.45
2023-04-19T22:19:41.723Z,4.55
2023-04-19T22:22:11.661Z,8.77
2023-04-19T22:27:21.263Z,6.28
2023-04-19T22:29:48.857Z,8.25
2023-04-19T22:35:24.657Z,4.05
2023-04-19T22:37:53.553Z,7.70
2023-04-19T22:40:21.989Z,6.15
2023-04-19T22:42:48.724Z,5.18
2023-04-19T22:45:17.785Z,6.30
2023-04-19T22:47:50.137Z,6.82
2023-04-19T22:50:20.389Z,4.95
2023-04-19T22:52:52.610Z,7.20
2023-04-19T22:55:20.347Z,7.38
2023-04-19T22:57:47.269Z,6.28
2023-04-19T23:00:18.167Z,3.90
2023-04-19T23:03:01.838Z,5.13
2023-04-19T23:05:33.625Z,7.90
2023-04-19T23:08:00.458Z,6.13
2023-04-19T23:10:29.116Z,7.82
2023-04-19T23:12:56.706Z,7.05
2023-04-19T23:15:25.403Z,4.47
2023-04-19T23:17:53.328Z,6.22
2023-04-19T23:20:20.950Z,5.32
2023-04-19T23:25:30.041Z,4.13
2023-04-19T23:28:03.736Z,7.18
2023-04-19T23:30:32.189Z,6.55
2023-04-19T23:33:02.476Z,5.78
2023-04-19T23:35:30.428Z,6.53
2023-04-19T23:38:00.250Z,5.68
2023-04-19T23:40:28.074Z,7.50
2023-04-19T23:42:55.975Z,8.65
2023-04-19T23:45:50.468Z,7.32
2023-04-19T23:48:18.857Z,6.10
2023-04-19T23:50:45.771Z,5.93
2023-04-19T23:53:19.670Z,7.35
2023-04-19T23:55:50.073Z,6.07
2023-04-19T23:58:20.977Z,5.13
